sensor_id;sensor_type;location;lat;lon;timestamp;temperature;humidity
1129;DHT22;553;51.038;7.216;2022-12-20T00:01:16;10.10;99.90
1129;DHT22;553;51.038;7.216;2022-12-20T00:03:44;10.10;99.90
1129;DHT22;553;51.038;7.216;2022-12-20T00:06:12;10.20;99.90
1129;DHT22;553;51.038;7.216;2022-12-20T00:08:40;10.20;99.90
1129;DHT22;553;51.038;7.216;2022-12-20T00:11:07;10.10;99.90
1129;DHT22;553;51.038;7.216;2022-12-20T00:13:35;10.20;99.90
1129;DHT22;553;51.038;7.216;2022-12-20T00:16:07;10.30;99.90
1129;DHT22;553;51.038;7.216;2022-12-20T00:18:35;10.30;99.90
1129;DHT22;553;51.038;7.216;2022-12-20T00:21:03;10.30;99.90
1129;DHT22;553;51.038;7.216;2022-12-20T00:23:30;10.20;99.90
1129;DHT22;553;51.038;7.216;2022-12-20T00:26:17;10.20;99.90
1129;DHT22;553;51.038;7.216;2022-12-20T00:28:45;10.20;99.90
1129;DHT22;553;51.038;7.216;2022-12-20T00:31:14;10.20;99.90
1129;DHT22;553;51.038;7.216;2022-12-20T00:33:44;10.20;99.90
1129;DHT22;553;51.038;7.216;2022-12-20T00:36:11;10.20;99.90
1129;DHT22;553;51.038;7.216;2022-12-20T00:38:38;10.20;99.90
1129;DHT22;553;51.038;7.216;2022-12-20T00:41:07;10.10;99.90
1129;DHT22;553;51.038;7.216;2022-12-20T00:43:36;10.10;99.90
1129;DHT22;553;51.038;7.216;2022-12-20T00:46:03;10.20;99.90
1129;DHT22;553;51.038;7.216;2022-12-20T00:48:31;10.20;99.90
1129;DHT22;553;51.038;7.216;2022-12-20T00:51:03;10.10;99.90
1129;DHT22;553;51.038;7.216;2022-12-20T00:53:30;10.10;99.90
1129;DHT22;553;51.038;7.216;2022-12-20T00:55:57;10.00;99.90
1129;DHT22;553;51.038;7.216;2022-12-20T00:58:24;9.90;99.90
1129;DHT22;553;51.038;7.216;2022-12-20T01:00:51;9.90;99.90
1129;DHT22;553;51.038;7.216;2022-12-20T01:03:23;10.00;99.90
1129;DHT22;553;51.038;7.216;2022-12-20T01:05:56;10.10;99.90
1129;DHT22;553;51.038;7.216;2022-12-20T01:08:24;10.00;99.90
1129;DHT22;553;51.038;7.216;2022-12-20T01:11:12;10.00;99.90
1129;DHT22;553;51.038;7.216;2022-12-20T01:13:42;9.90;99.90
1129;DHT22;553;51.038;7.216;2022-12-20T01:16:14;9.90;99.90
1129;DHT22;553;51.038;7.216;2022-12-20T01:18:41;9.90;99.90
1129;DHT22;553;51.038;7.216;2022-12-20T01:21:11;9.90;99.90
1129;DHT22;553;51.038;7.216;2022-12-20T01:23:38;9.80;99.90
1129;DHT22;553;51.038;7.216;2022-12-20T01:26:08;9.80;99.90
1129;DHT22;553;51.038;7.216;2022-12-20T01:28:38;9.70;99.90
1129;DHT22;553;51.038;7.216;2022-12-20T01:31:06;9.60;99.90
1129;DHT22;553;51.038;7.216;2022-12-20T01:33:34;9.70;99.90
1129;DHT22;553;51.038;7.216;2022-12-20T01:36:04;9.70;99.90
1129;DHT22;553;51.038;7.216;2022-12-20T01:38:31;9.70;99.90
1129;DHT22;553;51.038;7.216;2022-12-20T01:40:58;9.60;99.90
1129;DHT22;553;51.038;7.216;2022-12-20T01:46:16;9.60;99.90
1129;DHT22;553;51.038;7.216;2022-12-20T01:48:47;9.60;99.90
1129;DHT22;553;51.038;7.216;2022-12-20T01:51:15;9.50;99.90
1129;DHT22;553;51.038;7.216;2022-12-20T01:53:43;9.50;99.90
1129;DHT22;553;51.038;7.216;2022-12-20T01:56:10;9.50;99.90
1129;DHT22;553;51.038;7.216;2022-12-20T01:58:37;9.50;99.90
1129;DHT22;553;51.038;7.216;2022-12-20T02:01:05;9.50;99.90
1129;DHT22;553;51.038;7.216;2022-12-20T02:03:32;9.50;99.90
1129;DHT22;553;51.038;7.216;2022-12-20T02:06:13;9.40;99.90
1129;DHT22;553;51.038;7.216;2022-12-20T02:08:40;9.50;99.90
1129;DHT22;553;51.038;7.216;2022-12-20T02:11:27;9.50;99.90
1129;DHT22;553;51.038;7.216;2022-12-20T02:14:41;9.40;99.90
1129;DHT22;553;51.038;7.216;2022-12-20T02:23:01;9.40;99.90
1129;DHT22;553;51.038;7.216;2022-12-20T02:28:27;9.40;99.90
1129;DHT22;553;51.038;7.216;2022-12-20T02:31:02;9.30;99.90
1129;DHT22;553;51.038;7.216;2022-12-20T02:33:30;9.30;99.90
1129;DHT22;553;51.038;7.216;2022-12-20T02:35:57;9.30;99.90
1129;DHT22;553;51.038;7.216;2022-12-20T02:38:28;9.30;99.90
1129;DHT22;553;51.038;7.216;2022-12-20T02:41:08;9.30;99.90
1129;DHT22;553;51.038;7.216;2022-12-20T02:43:39;9.30;99.90
1129;DHT22;553;51.038;7.216;2022-12-20T02:46:30;9.20;99.90
1129;DHT22;553;51.038;7.216;2022-12-20T02:49:13;9.20;99.90
1129;DHT22;553;51.038;7.216;2022-12-20T02:51:42;9.10;99.90
1129;DHT22;553;51.038;7.216;2022-12-20T02:54:10;9.00;99.90
1129;DHT22;553;51.038;7.216;2022-12-20T02:56:41;9.10;99.90
1129;DHT22;553;51.038;7.216;2022-12-20T03:01:40;9.00;99.90
1129;DHT22;553;51.038;7.216;2022-12-20T03:04:09;9.00;99.90
1129;DHT22;553;51.038;7.216;2022-12-20T03:06:38;9.00;99.90
1129;DHT22;553;51.038;7.216;2022-12-20T03:09:05;9.00;99.90
1129;DHT22;553;51.038;7.216;2022-12-20T03:11:34;9.00;99.90
1129;DHT22;553;51.038;7.216;2022-12-20T03:14:01;9.00;99.90
1129;DHT22;553;51.038;7.216;2022-12-20T03:16:27;9.00;99.90
1129;DHT22;553;51.038;7.216;2022-12-20T03:18:54;9.00;99.90
1129;DHT22;553;51.038;7.216;2022-12-20T03:21:21;9.00;99.90
1129;DHT22;553;51.038;7.216;2022-12-20T03:23:48;9.10;99.90
1129;DHT22;553;51.038;7.216;2022-12-20T03:26:14;9.10;99.90
1129;DHT22;553;51.038;7.216;2022-12-20T03:28:46;9.10;99.90
1129;DHT22;553;51.038;7.216;2022-12-20T03:31:17;9.00;99.90
1129;DHT22;553;51.038;7.216;2022-12-20T03:33:49;9.00;99.90
1129;DHT22;553;51.038;7.216;2022-12-20T03:36:16;9.00;99.90
1129;DHT22;553;51.038;7.216;2022-12-20T03:38:53;9.00;99.90
1129;DHT22;553;51.038;7.216;2022-12-20T03:41:22;9.00;99.90
1129;DHT22;553;51.038;7.216;2022-12-20T03:43:51;9.10;99.90
1129;DHT22;553;51.038;7.216;2022-12-20T03:46:19;9.10;99.90
1129;DHT22;553;51.038;7.216;2022-12-20T03:48:46;9.10;99.90
1129;DHT22;553;51.038;7.216;2022-12-20T03:51:13;9.10;99.90
1129;DHT22;553;51.038;7.216;2022-12-20T03:53:39;9.10;99.90
1129;DHT22;553;51.038;7.216;2022-12-20T03:56:07;9.20;99.90
1129;DHT22;553;51.038;7.216;2022-12-20T03:58:34;9.10;99.90
1129;DHT22;553;51.038;7.216;2022-12-20T04:01:01;9.20;99.90
1129;DHT22;553;51.038;7.216;2022-12-20T04:03:38;9.30;99.90
1129;DHT22;553;51.038;7.216;2022-12-20T04:06:05;9.20;99.90
1129;DHT22;553;51.038;7.216;2022-12-20T04:08:31;9.10;99.90
1129;DHT22;553;51.038;7.216;2022-12-20T04:10:58;9.10;99.90
1129;DHT22;553;51.038;7.216;2022-12-20T04:13:52;9.10;99.90
1129;DHT22;553;51.038;7.216;2022-12-20T04:16:21;9.10;99.90
1129;DHT22;553;51.038;7.216;2022-12-20T04:18:49;9.10;99.90
1129;DHT22;553;51.038;7.216;2022-12-20T04:21:24;9.10;99.90
1129;DHT22;553;51.038;7.216;2022-12-20T04:23:58;9.10;99.90
1129;DHT22;553;51.038;7.216;2022-12-20T04:26:33;9.10;99.90
1129;DHT22;553;51.038;7.216;2022-12-20T04:29:01;9.20;99.90
1129;DHT22;553;51.038;7.216;2022-12-20T04:31:28;9.20;99.90
1129;DHT22;553;51.038;7.216;2022-12-20T04:33:55;9.10;99.90
1129;DHT22;553;51.038;7.216;2022-12-20T04:36:23;9.20;99.90
1129;DHT22;553;51.038;7.216;2022-12-20T04:38:51;9.20;99.90
1129;DHT22;553;51.038;7.216;2022-12-20T04:41:19;9.10;99.90
1129;DHT22;553;51.038;7.216;2022-12-20T04:43:56;9.20;99.90
1129;DHT22;553;51.038;7.216;2022-12-20T04:46:29;9.20;99.90
1129;DHT22;553;51.038;7.216;2022-12-20T04:48:57;9.20;99.90
1129;DHT22;553;51.038;7.216;2022-12-20T04:51:27;9.20;99.90
1129;DHT22;553;51.038;7.216;2022-12-20T04:53:54;9.30;99.90
1129;DHT22;553;51.038;7.216;2022-12-20T04:56:32;9.20;99.90
1129;DHT22;553;51.038;7.216;2022-12-20T04:59:05;9.20;99.90
1129;DHT22;553;51.038;7.216;2022-12-20T05:01:32;9.30;99.90
1129;DHT22;553;51.038;7.216;2022-12-20T05:04:00;9.30;99.90
1129;DHT22;553;51.038;7.216;2022-12-20T05:06:30;9.30;99.90
1129;DHT22;553;51.038;7.216;2022-12-20T05:08:57;9.20;99.90
1129;DHT22;553;51.038;7.216;2022-12-20T05:11:24;9.20;99.90
1129;DHT22;553;51.038;7.216;2022-12-20T05:13:51;9.20;99.90
1129;DHT22;553;51.038;7.216;2022-12-20T05:16:19;9.30;99.90
1129;DHT22;553;51.038;7.216;2022-12-20T05:18:46;9.30;99.90
1129;DHT22;553;51.038;7.216;2022-12-20T05:21:16;9.30;99.90
1129;DHT22;553;51.038;7.216;2022-12-20T05:24:02;9.30;99.90
1129;DHT22;553;51.038;7.216;2022-12-20T05:26:57;9.20;99.90
1129;DHT22;553;51.038;7.216;2022-12-20T05:29:24;9.30;99.90
1129;DHT22;553;51.038;7.216;2022-12-20T05:31:52;9.30;99.90
1129;DHT22;553;51.038;7.216;2022-12-20T05:34:19;9.20;99.90
1129;DHT22;553;51.038;7.216;2022-12-20T05:36:51;9.30;99.90
1129;DHT22;553;51.038;7.216;2022-12-20T05:39:19;9.20;99.90
1129;DHT22;553;51.038;7.216;2022-12-20T05:41:47;9.20;99.90
1129;DHT22;553;51.038;7.216;2022-12-20T05:44:14;9.20;99.90
1129;DHT22;553;51.038;7.216;2022-12-20T05:46:45;9.20;99.90
1129;DHT22;553;51.038;7.216;2022-12-20T05:49:16;9.10;99.90
1129;DHT22;553;51.038;7.216;2022-12-20T05:51:43;9.10;99.90
1129;DHT22;553;51.038;7.216;2022-12-20T05:54:21;9.20;99.90
1129;DHT22;553;51.038;7.216;2022-12-20T05:56:53;9.20;99.90
1129;DHT22;553;51.038;7.216;2022-12-20T05:59:26;9.20;99.90
1129;DHT22;553;51.038;7.216;2022-12-20T06:01:52;9.20;99.90
1129;DHT22;553;51.038;7.216;2022-12-20T06:04:22;9.20;99.90
1129;DHT22;553;51.038;7.216;2022-12-20T06:06:50;9.20;99.90
1129;DHT22;553;51.038;7.216;2022-12-20T06:09:18;9.20;99.90
1129;DHT22;553;51.038;7.216;2022-12-20T06:11:53;9.10;99.90
1129;DHT22;553;51.038;7.216;2022-12-20T06:14:21;9.10;99.90
1129;DHT22;553;51.038;7.216;2022-12-20T06:16:47;9.10;99.90
1129;DHT22;553;51.038;7.216;2022-12-20T06:19:16;9.20;99.90
1129;DHT22;553;51.038;7.216;2022-12-20T06:21:48;9.20;99.90
1129;DHT22;553;51.038;7.216;2022-12-20T06:24:18;9.20;99.90
1129;DHT22;553;51.038;7.216;2022-12-20T06:26:45;9.20;99.90
1129;DHT22;553;51.038;7.216;2022-12-20T06:29:12;9.20;99.90
1129;DHT22;553;51.038;7.216;2022-12-20T06:31:48;9.20;99.90
1129;DHT22;553;51.038;7.216;2022-12-20T06:34:16;9.20;99.90
1129;DHT22;553;51.038;7.216;2022-12-20T06:36:43;9.20;99.90
1129;DHT22;553;51.038;7.216;2022-12-20T06:39:16;9.10;99.90
1129;DHT22;553;51.038;7.216;2022-12-20T06:41:53;9.20;99.90
1129;DHT22;553;51.038;7.216;2022-12-20T06:44:20;9.20;99.90
1129;DHT22;553;51.038;7.216;2022-12-20T06:46:49;9.20;99.90
1129;DHT22;553;51.038;7.216;2022-12-20T06:49:15;9.10;99.90
1129;DHT22;553;51.038;7.216;2022-12-20T06:51:42;9.10;99.90
1129;DHT22;553;51.038;7.216;2022-12-20T06:54:09;9.10;99.90
1129;DHT22;553;51.038;7.216;2022-12-20T06:56:36;9.10;99.90
1129;DHT22;553;51.038;7.216;2022-12-20T06:59:09;9.10;99.90
1129;DHT22;553;51.038;7.216;2022-12-20T07:01:35;9.10;99.90
1129;DHT22;553;51.038;7.216;2022-12-20T07:04:02;9.10;99.90
1129;DHT22;553;51.038;7.216;2022-12-20T07:06:29;9.20;99.90
1129;DHT22;553;51.038;7.216;2022-12-20T07:08:56;9.20;99.90
1129;DHT22;553;51.038;7.216;2022-12-20T07:11:23;9.20;99.90
1129;DHT22;553;51.038;7.216;2022-12-20T07:13:57;9.30;99.90
1129;DHT22;553;51.038;7.216;2022-12-20T07:16:24;9.30;99.90
1129;DHT22;553;51.038;7.216;2022-12-20T07:18:52;9.30;99.90
1129;DHT22;553;51.038;7.216;2022-12-20T07:21:19;9.30;99.90
1129;DHT22;553;51.038;7.216;2022-12-20T07:23:46;9.30;99.90
1129;DHT22;553;51.038;7.216;2022-12-20T07:26:14;9.30;99.90
1129;DHT22;553;51.038;7.216;2022-12-20T07:28:41;9.30;99.90
1129;DHT22;553;51.038;7.216;2022-12-20T07:31:08;9.30;99.90
1129;DHT22;553;51.038;7.216;2022-12-20T07:33:35;9.30;99.90
1129;DHT22;553;51.038;7.216;2022-12-20T07:36:03;9.40;99.90
1129;DHT22;553;51.038;7.216;2022-12-20T07:38:31;9.40;99.90
1129;DHT22;553;51.038;7.216;2022-12-20T07:40:57;9.40;99.90
1129;DHT22;553;51.038;7.216;2022-12-20T07:43:24;9.30;99.90
1129;DHT22;553;51.038;7.216;2022-12-20T07:45:55;9.40;99.90
1129;DHT22;553;51.038;7.216;2022-12-20T07:48:23;9.30;99.90
1129;DHT22;553;51.038;7.216;2022-12-20T07:51:00;9.20;99.90
1129;DHT22;553;51.038;7.216;2022-12-20T07:53:30;9.20;99.90
1129;DHT22;553;51.038;7.216;2022-12-20T07:56:00;9.30;99.90
1129;DHT22;553;51.038;7.216;2022-12-20T07:58:29;9.30;99.90
1129;DHT22;553;51.038;7.216;2022-12-20T08:00:56;9.30;99.90
1129;DHT22;553;51.038;7.216;2022-12-20T08:03:27;9.30;99.90
1129;DHT22;553;51.038;7.216;2022-12-20T08:05:59;9.30;99.90
1129;DHT22;553;51.038;7.216;2022-12-20T08:08:26;9.50;99.90
1129;DHT22;553;51.038;7.216;2022-12-20T08:10:52;9.50;99.90
1129;DHT22;553;51.038;7.216;2022-12-20T08:13:19;9.50;99.90
1129;DHT22;553;51.038;7.216;2022-12-20T08:15:46;9.50;99.90
1129;DHT22;553;51.038;7.216;2022-12-20T08:18:12;9.40;99.90
1129;DHT22;553;51.038;7.216;2022-12-20T08:20:39;9.40;99.90
1129;DHT22;553;51.038;7.216;2022-12-20T08:23:06;9.40;99.90
1129;DHT22;553;51.038;7.216;2022-12-20T08:25:33;9.30;99.90
1129;DHT22;553;51.038;7.216;2022-12-20T08:28:07;9.40;99.90
1129;DHT22;553;51.038;7.216;2022-12-20T08:30:34;9.40;99.90
1129;DHT22;553;51.038;7.216;2022-12-20T08:33:01;9.40;99.90
1129;DHT22;553;51.038;7.216;2022-12-20T08:35:28;9.30;99.90
1129;DHT22;553;51.038;7.216;2022-12-20T08:37:55;9.40;99.90
1129;DHT22;553;51.038;7.216;2022-12-20T08:40:22;9.40;99.90
1129;DHT22;553;51.038;7.216;2022-12-20T08:42:48;9.40;99.90
1129;DHT22;553;51.038;7.216;2022-12-20T08:45:15;9.40;99.90
1129;DHT22;553;51.038;7.216;2022-12-20T08:47:44;9.40;99.90
1129;DHT22;553;51.038;7.216;2022-12-20T08:50:10;9.40;99.90
1129;DHT22;553;51.038;7.216;2022-12-20T08:52:39;9.40;99.90
1129;DHT22;553;51.038;7.216;2022-12-20T08:55:06;9.50;99.90
1129;DHT22;553;51.038;7.216;2022-12-20T08:57:32;9.50;99.90
1129;DHT22;553;51.038;7.216;2022-12-20T08:59:59;9.50;99.90
1129;DHT22;553;51.038;7.216;2022-12-20T09:02:26;9.60;99.90
1129;DHT22;553;51.038;7.216;2022-12-20T09:04:53;9.60;99.90
1129;DHT22;553;51.038;7.216;2022-12-20T09:07:19;9.60;99.90
1129;DHT22;553;51.038;7.216;2022-12-20T09:09:46;9.60;99.90
1129;DHT22;553;51.038;7.216;2022-12-20T09:12:13;9.60;99.90
1129;DHT22;553;51.038;7.216;2022-12-20T09:14:39;9.60;99.90
1129;DHT22;553;51.038;7.216;2022-12-20T09:17:06;9.70;99.90
1129;DHT22;553;51.038;7.216;2022-12-20T09:19:33;9.60;99.90
1129;DHT22;553;51.038;7.216;2022-12-20T09:22:00;9.70;99.90
1129;DHT22;553;51.038;7.216;2022-12-20T09:24:26;9.60;99.90
1129;DHT22;553;51.038;7.216;2022-12-20T09:26:53;9.60;99.90
1129;DHT22;553;51.038;7.216;2022-12-20T09:29:20;9.60;99.90
1129;DHT22;553;51.038;7.216;2022-12-20T09:31:55;9.60;99.90
1129;DHT22;553;51.038;7.216;2022-12-20T09:34:21;9.70;99.90
1129;DHT22;553;51.038;7.216;2022-12-20T09:36:48;9.70;99.90
1129;DHT22;553;51.038;7.216;2022-12-20T09:39:15;9.70;99.90
1129;DHT22;553;51.038;7.216;2022-12-20T09:41:43;9.70;99.90
1129;DHT22;553;51.038;7.216;2022-12-20T09:44:15;9.70;99.90
1129;DHT22;553;51.038;7.216;2022-12-20T09:46:46;9.80;99.90
1129;DHT22;553;51.038;7.216;2022-12-20T09:49:18;9.80;99.90
1129;DHT22;553;51.038;7.216;2022-12-20T09:51:59;9.70;99.90
1129;DHT22;553;51.038;7.216;2022-12-20T09:57:52;9.80;99.90
1129;DHT22;553;51.038;7.216;2022-12-20T10:00:22;9.80;99.90
1129;DHT22;553;51.038;7.216;2022-12-20T10:02:50;9.90;99.90
1129;DHT22;553;51.038;7.216;2022-12-20T10:05:33;9.90;99.90
1129;DHT22;553;51.038;7.216;2022-12-20T10:08:22;9.90;99.90
1129;DHT22;553;51.038;7.216;2022-12-20T10:10:57;10.00;99.90
1129;DHT22;553;51.038;7.216;2022-12-20T10:13:44;9.90;99.90
1129;DHT22;553;51.038;7.216;2022-12-20T10:22:04;10.00;99.90
1129;DHT22;553;51.038;7.216;2022-12-20T10:24:33;9.90;99.90
1129;DHT22;553;51.038;7.216;2022-12-20T10:27:13;10.00;99.90
1129;DHT22;553;51.038;7.216;2022-12-20T10:29:40;9.90;99.90
1129;DHT22;553;51.038;7.216;2022-12-20T10:32:17;9.90;99.90
1129;DHT22;553;51.038;7.216;2022-12-20T10:35:08;9.90;99.90
1129;DHT22;553;51.038;7.216;2022-12-20T10:37:37;9.90;99.90
1129;DHT22;553;51.038;7.216;2022-12-20T10:40:35;9.90;99.90
1129;DHT22;553;51.038;7.216;2022-12-20T10:43:22;9.90;99.90
1129;DHT22;553;51.038;7.216;2022-12-20T10:46:04;9.90;99.90
1129;DHT22;553;51.038;7.216;2022-12-20T10:48:39;9.90;99.90
1129;DHT22;553;51.038;7.216;2022-12-20T10:54:02;10.00;99.90
1129;DHT22;553;51.038;7.216;2022-12-20T10:56:34;10.00;99.90
1129;DHT22;553;51.038;7.216;2022-12-20T11:01:34;9.90;99.90
1129;DHT22;553;51.038;7.216;2022-12-20T11:04:03;9.90;99.90
1129;DHT22;553;51.038;7.216;2022-12-20T11:09:31;10.00;99.90
1129;DHT22;553;51.038;7.216;2022-12-20T11:12:15;10.00;99.90
1129;DHT22;553;51.038;7.216;2022-12-20T11:14:46;10.10;99.90
1129;DHT22;553;51.038;7.216;2022-12-20T11:17:36;10.10;99.90
1129;DHT22;553;51.038;7.216;2022-12-20T11:20:10;10.10;99.90
1129;DHT22;553;51.038;7.216;2022-12-20T11:23:06;10.10;99.90
1129;DHT22;553;51.038;7.216;2022-12-20T11:25:59;10.20;99.90
1129;DHT22;553;51.038;7.216;2022-12-20T11:28:44;10.20;99.90
1129;DHT22;553;51.038;7.216;2022-12-20T11:31:19;10.20;99.90
1129;DHT22;553;51.038;7.216;2022-12-20T11:34:07;10.20;99.90
1129;DHT22;553;51.038;7.216;2022-12-20T11:39:55;10.20;99.90
1129;DHT22;553;51.038;7.216;2022-12-20T11:42:54;10.20;99.90
1129;DHT22;553;51.038;7.216;2022-12-20T11:48:53;10.20;99.90
1129;DHT22;553;51.038;7.216;2022-12-20T11:51:49;10.20;99.90
1129;DHT22;553;51.038;7.216;2022-12-20T11:54:25;10.30;99.90
1129;DHT22;553;51.038;7.216;2022-12-20T11:57:14;10.30;99.90
1129;DHT22;553;51.038;7.216;2022-12-20T12:00:00;10.30;99.90
1129;DHT22;553;51.038;7.216;2022-12-20T12:02:58;10.40;99.90
1129;DHT22;553;51.038;7.216;2022-12-20T12:05:49;10.40;99.90
1129;DHT22;553;51.038;7.216;2022-12-20T12:08:26;10.40;99.90
1129;DHT22;553;51.038;7.216;2022-12-20T12:11:13;10.40;99.90
1129;DHT22;553;51.038;7.216;2022-12-20T12:14:02;10.50;99.90
1129;DHT22;553;51.038;7.216;2022-12-20T12:19:00;10.40;99.90
1129;DHT22;553;51.038;7.216;2022-12-20T12:21:33;10.50;99.90
1129;DHT22;553;51.038;7.216;2022-12-20T12:26:37;10.50;99.90
1129;DHT22;553;51.038;7.216;2022-12-20T12:29:15;10.50;99.90
1129;DHT22;553;51.038;7.216;2022-12-20T12:32:05;10.50;99.90
1129;DHT22;553;51.038;7.216;2022-12-20T12:43:53;10.40;99.90
1129;DHT22;553;51.038;7.216;2022-12-20T12:46:28;10.40;99.90
1129;DHT22;553;51.038;7.216;2022-12-20T12:49:14;10.40;99.90
1129;DHT22;553;51.038;7.216;2022-12-20T12:51:49;10.30;99.90
1129;DHT22;553;51.038;7.216;2022-12-20T12:57:16;10.40;99.90
1129;DHT22;553;51.038;7.216;2022-12-20T12:59:45;10.40;99.90
1129;DHT22;553;51.038;7.216;2022-12-20T13:17:50;10.80;99.90
1129;DHT22;553;51.038;7.216;2022-12-20T13:20:33;10.80;99.90
1129;DHT22;553;51.038;7.216;2022-12-20T13:25:42;10.80;99.90
1129;DHT22;553;51.038;7.216;2022-12-20T13:30:44;10.70;99.90
1129;DHT22;553;51.038;7.216;2022-12-20T13:35:57;10.80;99.90
1129;DHT22;553;51.038;7.216;2022-12-20T13:44:34;10.80;99.90
1129;DHT22;553;51.038;7.216;2022-12-20T13:49:43;10.80;99.90
1129;DHT22;553;51.038;7.216;2022-12-20T13:54:43;10.80;99.90
1129;DHT22;553;51.038;7.216;2022-12-20T13:57:20;10.70;99.90
1129;DHT22;553;51.038;7.216;2022-12-20T13:59:51;10.70;99.90
1129;DHT22;553;51.038;7.216;2022-12-20T14:02:29;10.70;99.90
1129;DHT22;553;51.038;7.216;2022-12-20T14:05:04;10.70;99.90
1129;DHT22;553;51.038;7.216;2022-12-20T14:07:34;10.70;99.90
1129;DHT22;553;51.038;7.216;2022-12-20T14:10:03;10.70;99.90
1129;DHT22;553;51.038;7.216;2022-12-20T14:12:30;10.70;99.90
1129;DHT22;553;51.038;7.216;2022-12-20T14:15:26;10.70;99.90
1129;DHT22;553;51.038;7.216;2022-12-20T14:17:54;10.80;99.90
1129;DHT22;553;51.038;7.216;2022-12-20T14:20:28;10.80;99.90
1129;DHT22;553;51.038;7.216;2022-12-20T14:23:20;10.80;99.90
1129;DHT22;553;51.038;7.216;2022-12-20T14:25:51;10.80;99.90
1129;DHT22;553;51.038;7.216;2022-12-20T14:28:39;10.70;99.90
1129;DHT22;553;51.038;7.216;2022-12-20T14:34:01;10.70;99.90
1129;DHT22;553;51.038;7.216;2022-12-20T14:36:28;10.60;99.90
1129;DHT22;553;51.038;7.216;2022-12-20T14:38:57;10.60;99.90
1129;DHT22;553;51.038;7.216;2022-12-20T14:46:33;10.70;99.90
1129;DHT22;553;51.038;7.216;2022-12-20T14:49:14;10.80;99.90
1129;DHT22;553;51.038;7.216;2022-12-20T14:51:42;10.80;99.90
1129;DHT22;553;51.038;7.216;2022-12-20T14:54:24;10.80;99.90
1129;DHT22;553;51.038;7.216;2022-12-20T14:57:29;10.70;99.90
1129;DHT22;553;51.038;7.216;2022-12-20T15:11:00;10.70;99.90
1129;DHT22;553;51.038;7.216;2022-12-20T15:13:35;10.70;99.90
1129;DHT22;553;51.038;7.216;2022-12-20T15:16:19;10.70;99.90
1129;DHT22;553;51.038;7.216;2022-12-20T15:18:53;10.70;99.90
1129;DHT22;553;51.038;7.216;2022-12-20T15:21:37;10.60;99.90
1129;DHT22;553;51.038;7.216;2022-12-20T15:24:11;10.50;99.90
1129;DHT22;553;51.038;7.216;2022-12-20T15:26:38;10.50;99.90
1129;DHT22;553;51.038;7.216;2022-12-20T15:29:06;10.40;99.90
1129;DHT22;553;51.038;7.216;2022-12-20T15:31:34;10.40;99.90
1129;DHT22;553;51.038;7.216;2022-12-20T15:34:26;10.40;99.90
1129;DHT22;553;51.038;7.216;2022-12-20T15:36:53;10.40;99.90
1129;DHT22;553;51.038;7.216;2022-12-20T15:39:21;10.50;99.90
1129;DHT22;553;51.038;7.216;2022-12-20T15:41:49;10.50;99.90
1129;DHT22;553;51.038;7.216;2022-12-20T15:44:21;10.50;99.90
1129;DHT22;553;51.038;7.216;2022-12-20T15:46:50;10.50;99.90
1129;DHT22;553;51.038;7.216;2022-12-20T15:49:22;10.50;99.90
1129;DHT22;553;51.038;7.216;2022-12-20T15:51:51;10.50;99.90
1129;DHT22;553;51.038;7.216;2022-12-20T15:54:28;10.50;99.90
1129;DHT22;553;51.038;7.216;2022-12-20T15:57:03;10.50;99.90
1129;DHT22;553;51.038;7.216;2022-12-20T15:59:33;10.50;99.90
1129;DHT22;553;51.038;7.216;2022-12-20T16:02:25;10.50;99.90
1129;DHT22;553;51.038;7.216;2022-12-20T16:04:53;10.40;99.90
1129;DHT22;553;51.038;7.216;2022-12-20T16:07:20;10.40;99.90
1129;DHT22;553;51.038;7.216;2022-12-20T16:09:47;10.40;99.90
1129;DHT22;553;51.038;7.216;2022-12-20T16:12:25;10.40;99.90
1129;DHT22;553;51.038;7.216;2022-12-20T16:14:53;10.30;99.90
1129;DHT22;553;51.038;7.216;2022-12-20T16:17:20;10.30;99.90
1129;DHT22;553;51.038;7.216;2022-12-20T16:19:47;10.30;99.90
1129;DHT22;553;51.038;7.216;2022-12-20T16:22:16;10.30;99.90
1129;DHT22;553;51.038;7.216;2022-12-20T16:24:44;10.40;99.90
1129;DHT22;553;51.038;7.216;2022-12-20T16:27:11;10.50;99.90
1129;DHT22;553;51.038;7.216;2022-12-20T16:29:38;10.50;99.90
1129;DHT22;553;51.038;7.216;2022-12-20T16:32:15;10.60;99.90
1129;DHT22;553;51.038;7.216;2022-12-20T16:34:42;10.60;99.90
1129;DHT22;553;51.038;7.216;2022-12-20T16:37:09;10.60;99.90
1129;DHT22;553;51.038;7.216;2022-12-20T16:39:40;10.60;99.90
1129;DHT22;553;51.038;7.216;2022-12-20T16:42:16;10.60;99.90
1129;DHT22;553;51.038;7.216;2022-12-20T16:44:43;10.60;99.90
1129;DHT22;553;51.038;7.216;2022-12-20T16:47:11;10.60;99.90
1129;DHT22;553;51.038;7.216;2022-12-20T16:49:39;10.70;99.90
1129;DHT22;553;51.038;7.216;2022-12-20T16:52:17;10.70;99.90
1129;DHT22;553;51.038;7.216;2022-12-20T16:54:44;10.60;99.90
1129;DHT22;553;51.038;7.216;2022-12-20T16:57:10;10.70;99.90
1129;DHT22;553;51.038;7.216;2022-12-20T16:59:37;10.70;99.90
1129;DHT22;553;51.038;7.216;2022-12-20T17:02:18;10.60;99.90
1129;DHT22;553;51.038;7.216;2022-12-20T17:04:47;10.60;99.90
1129;DHT22;553;51.038;7.216;2022-12-20T17:07:14;10.70;99.90
1129;DHT22;553;51.038;7.216;2022-12-20T17:09:42;10.60;99.90
1129;DHT22;553;51.038;7.216;2022-12-20T17:12:14;10.60;99.90
1129;DHT22;553;51.038;7.216;2022-12-20T17:14:41;10.60;99.90
1129;DHT22;553;51.038;7.216;2022-12-20T17:17:08;10.60;99.90
1129;DHT22;553;51.038;7.216;2022-12-20T17:19:35;10.60;99.90
1129;DHT22;553;51.038;7.216;2022-12-20T17:22:02;10.60;99.90
1129;DHT22;553;51.038;7.216;2022-12-20T17:24:47;10.60;99.90
1129;DHT22;553;51.038;7.216;2022-12-20T17:27:13;10.70;99.90
1129;DHT22;553;51.038;7.216;2022-12-20T17:29:40;10.50;99.90
1129;DHT22;553;51.038;7.216;2022-12-20T17:32:19;10.50;99.90
1129;DHT22;553;51.038;7.216;2022-12-20T17:34:46;10.40;99.90
1129;DHT22;553;51.038;7.216;2022-12-20T17:37:13;10.40;99.90
1129;DHT22;553;51.038;7.216;2022-12-20T17:39:40;10.50;99.90
1129;DHT22;553;51.038;7.216;2022-12-20T17:42:11;10.60;99.90
1129;DHT22;553;51.038;7.216;2022-12-20T17:44:38;10.50;99.90
1129;DHT22;553;51.038;7.216;2022-12-20T17:47:05;10.50;99.90
1129;DHT22;553;51.038;7.216;2022-12-20T17:49:32;10.50;99.90
1129;DHT22;553;51.038;7.216;2022-12-20T17:51:59;10.60;99.90
1129;DHT22;553;51.038;7.216;2022-12-20T17:54:26;10.60;99.90
1129;DHT22;553;51.038;7.216;2022-12-20T17:57:02;10.60;99.90
1129;DHT22;553;51.038;7.216;2022-12-20T17:59:29;10.50;99.90
1129;DHT22;553;51.038;7.216;2022-12-20T18:01:56;10.60;99.90
1129;DHT22;553;51.038;7.216;2022-12-20T18:04:23;10.60;99.90
1129;DHT22;553;51.038;7.216;2022-12-20T18:06:50;10.60;99.90
1129;DHT22;553;51.038;7.216;2022-12-20T18:09:19;10.60;99.90
1129;DHT22;553;51.038;7.216;2022-12-20T18:11:46;10.60;99.90
1129;DHT22;553;51.038;7.216;2022-12-20T18:14:13;10.60;99.90
1129;DHT22;553;51.038;7.216;2022-12-20T18:16:40;10.60;99.90
1129;DHT22;553;51.038;7.216;2022-12-20T18:19:15;10.60;99.90
1129;DHT22;553;51.038;7.216;2022-12-20T18:21:42;10.60;99.90
1129;DHT22;553;51.038;7.216;2022-12-20T18:24:13;10.60;99.90
1129;DHT22;553;51.038;7.216;2022-12-20T18:26:42;10.60;99.90
1129;DHT22;553;51.038;7.216;2022-12-20T18:29:09;10.60;99.90
1129;DHT22;553;51.038;7.216;2022-12-20T18:31:36;10.70;99.90
1129;DHT22;553;51.038;7.216;2022-12-20T18:34:03;10.60;99.90
1129;DHT22;553;51.038;7.216;2022-12-20T18:36:35;10.60;99.90
1129;DHT22;553;51.038;7.216;2022-12-20T18:39:04;10.70;99.90
1129;DHT22;553;51.038;7.216;2022-12-20T18:41:32;10.60;99.90
1129;DHT22;553;51.038;7.216;2022-12-20T18:44:02;10.60;99.90